Time;durP1;ratioP1;P1;durP2;ratioP2;P2;SDS_P1;SDS_P2;PMS_P1;PMS_P2;Temp;Humidity;BMP_temperature;BMP_pressure;BME280_temperature;BME280_humidity;BME280_pressure;Samples;Min_cycle;Max_cycle;Signal;HPM_P1;HPM_P2
2021/06/05 00:01:19;;;;;;;6.3;4.6;;;;;;;;;;;;;
2021/06/05 00:03:44;;;;;;;7.6;5.2;;;;;;;;;;;;;
2021/06/05 00:06:13;;;;;;;6.4;5.2;;;;;;;;;;;;;
2021/06/05 00:08:35;;;;;;;6;5;;;;;;;;;;;;;
2021/06/05 00:11:02;;;;;;;6.9;4.9;;;;;;;;;;;;;
2021/06/05 00:13:27;;;;;;;6.8;5.5;;;;;;;;;;;;;
2021/06/05 00:15:53;;;;;;;7.1;5.6;;;;;;;;;;;;;
2021/06/05 00:18:19;;;;;;;6.4;5.8;;;;;;;;;;;;;
2021/06/05 00:20:44;;;;;;;6.2;5.6;;;;;;;;;;;;;
2021/06/05 00:23:09;;;;;;;7.8;5.9;;;;;;;;;;;;;
2021/06/05 00:25:34;;;;;;;6.5;4.8;;;;;;;;;;;;;
2021/06/05 00:27:59;;;;;;;6;5.2;;;;;;;;;;;;;
2021/06/05 00:30:25;;;;;;;6.9;5.3;;;;;;;;;;;;;
2021/06/05 00:32:50;;;;;;;4.4;4;;;;;;;;;;;;;
2021/06/05 00:35:15;;;;;;;6.5;4;;;;;;;;;;;;;
2021/06/05 00:37:42;;;;;;;5.3;3.9;;;;;;;;;;;;;
2021/06/05 00:40:07;;;;;;;4.4;3.6;;;;;;;;;;;;;
2021/06/05 00:42:32;;;;;;;5;4;;;;;;;;;;;;;
2021/06/05 00:44:58;;;;;;;4.7;4.2;;;;;;;;;;;;;
2021/06/05 00:47:23;;;;;;;5.2;4.5;;;;;;;;;;;;;
2021/06/05 00:49:49;;;;;;;5;4.5;;;;;;;;;;;;;
2021/06/05 00:52:14;;;;;;;5.3;4.8;;;;;;;;;;;;;
2021/06/05 00:54:42;;;;;;;5.3;4.8;;;;;;;;;;;;;
2021/06/05 00:57:07;;;;;;;7.2;5;;;;;;;;;;;;;
2021/06/05 00:59:32;;;;;;;6.4;5.1;;;;;;;;;;;;;
2021/06/05 01:01:58;;;;;;;8.7;5.7;;;;;;;;;;;;;
2021/06/05 01:04:23;;;;;;;5.6;4.7;;;;;;;;;;;;;
2021/06/05 01:06:48;;;;;;;4.9;4.1;;;;;;;;;;;;;
2021/06/05 01:09:13;;;;;;;5.9;3.7;;;;;;;;;;;;;
2021/06/05 01:11:38;;;;;;;7.1;4.1;;;;;;;;;;;;;
2021/06/05 01:14:04;;;;;;;4.9;4.2;;;;;;;;;;;;;
2021/06/05 01:16:29;;;;;;;4.9;4.1;;;;;;;;;;;;;
2021/06/05 01:18:54;;;;;;;6.9;4.2;;;;;;;;;;;;;
2021/06/05 01:21:19;;;;;;;7.9;4.3;;;;;;;;;;;;;
2021/06/05 01:23:45;;;;;;;4.2;3.8;;;;;;;;;;;;;
2021/06/05 01:26:10;;;;;;;4.5;4.1;;;;;;;;;;;;;
2021/06/05 01:28:35;;;;;;;4.4;3.9;;;;;;;;;;;;;
2021/06/05 01:31:01;;;;;;;7.5;3.8;;;;;;;;;;;;;
2021/06/05 01:33:27;;;;;;;8.6;4.2;;;;;;;;;;;;;
2021/06/05 01:35:52;;;;;;;4.3;3.7;;;;;;;;;;;;;
2021/06/05 01:38:17;;;;;;;4.4;4;;;;;;;;;;;;;
2021/06/05 01:40:42;;;;;;;5;4;;;;;;;;;;;;;
2021/06/05 01:43:08;;;;;;;4.7;4;;;;;;;;;;;;;
2021/06/05 01:45:33;;;;;;;5.5;4.1;;;;;;;;;;;;;
2021/06/05 01:48:00;;;;;;;4.2;3.8;;;;;;;;;;;;;
2021/06/05 01:50:25;;;;;;;5.5;4.1;;;;;;;;;;;;;
2021/06/05 01:52:51;;;;;;;5;4;;;;;;;;;;;;;
2021/06/05 01:55:16;;;;;;;6;4.5;;;;;;;;;;;;;
2021/06/05 01:57:42;;;;;;;6.8;4;;;;;;;;;;;;;
2021/06/05 02:00:07;;;;;;;4.9;3.7;;;;;;;;;;;;;
2021/06/05 02:02:33;;;;;;;6.1;4.3;;;;;;;;;;;;;
2021/06/05 02:04:58;;;;;;;7.9;4.3;;;;;;;;;;;;;
2021/06/05 02:07:24;;;;;;;4.9;3.8;;;;;;;;;;;;;
2021/06/05 02:09:49;;;;;;;5;3.8;;;;;;;;;;;;;
2021/06/05 02:12:14;;;;;;;4.4;4;;;;;;;;;;;;;
2021/06/05 02:14:39;;;;;;;5.6;3.9;;;;;;;;;;;;;
2021/06/05 02:17:04;;;;;;;4.6;4;;;;;;;;;;;;;
2021/06/05 02:19:29;;;;;;;5.3;3.8;;;;;;;;;;;;;
2021/06/05 02:21:56;;;;;;;7;3.9;;;;;;;;;;;;;
2021/06/05 02:24:20;;;;;;;6;3.7;;;;;;;;;;;;;
2021/06/05 02:26:45;;;;;;;5.7;4.2;;;;;;;;;;;;;
2021/06/05 02:29:10;;;;;;;5.1;4.4;;;;;;;;;;;;;
2021/06/05 02:31:36;;;;;;;5.6;4;;;;;;;;;;;;;
2021/06/05 02:34:01;;;;;;;4.6;4;;;;;;;;;;;;;
2021/06/05 02:36:26;;;;;;;4.9;4;;;;;;;;;;;;;
2021/06/05 02:38:53;;;;;;;6.1;4.2;;;;;;;;;;;;;
2021/06/05 02:43:56;;;;;;;5.1;4.3;;;;;;;;;;;;;
2021/06/05 02:46:22;;;;;;;4.8;4.3;;;;;;;;;;;;;
2021/06/05 02:48:47;;;;;;;5.9;4.2;;;;;;;;;;;;;
2021/06/05 02:51:13;;;;;;;4.9;4.4;;;;;;;;;;;;;
2021/06/05 02:53:38;;;;;;;4.5;3.3;;;;;;;;;;;;;
2021/06/05 02:56:13;;;;;;;5.9;4.1;;;;;;;;;;;;;
2021/06/05 02:58:38;;;;;;;5.5;3.8;;;;;;;;;;;;;
2021/06/05 03:01:05;;;;;;;4.2;3.8;;;;;;;;;;;;;
2021/06/05 03:03:29;;;;;;;4.2;3.7;;;;;;;;;;;;;
2021/06/05 03:05:54;;;;;;;8.8;4.1;;;;;;;;;;;;;
2021/06/05 03:08:19;;;;;;;5.6;3.9;;;;;;;;;;;;;
2021/06/05 03:10:45;;;;;;;5.9;3.9;;;;;;;;;;;;;
2021/06/05 03:13:11;;;;;;;5;4.3;;;;;;;;;;;;;
2021/06/05 03:15:36;;;;;;;4.5;3.8;;;;;;;;;;;;;
2021/06/05 03:18:02;;;;;;;5;3.9;;;;;;;;;;;;;
2021/06/05 03:20:27;;;;;;;4.9;4;;;;;;;;;;;;;
2021/06/05 03:22:54;;;;;;;6.3;4.1;;;;;;;;;;;;;
2021/06/05 03:25:18;;;;;;;5;4;;;;;;;;;;;;;
2021/06/05 03:27:44;;;;;;;7.2;4.4;;;;;;;;;;;;;
2021/06/05 03:30:09;;;;;;;5.6;4.7;;;;;;;;;;;;;
2021/06/05 03:32:56;;;;;;;6.3;5.1;;;;;;;;;;;;;
2021/06/05 03:35:16;;;;;;;5.4;4.7;;;;;;;;;;;;;
2021/06/05 03:37:41;;;;;;;7.1;5.1;;;;;;;;;;;;;
2021/06/05 03:40:06;;;;;;;7.2;5.2;;;;;;;;;;;;;
2021/06/05 03:42:31;;;;;;;7.2;5.2;;;;;;;;;;;;;
2021/06/05 03:44:57;;;;;;;8.1;5.4;;;;;;;;;;;;;
2021/06/05 03:47:22;;;;;;;9.6;5.4;;;;;;;;;;;;;
2021/06/05 03:49:47;;;;;;;6.7;5;;;;;;;;;;;;;
2021/06/05 03:52:13;;;;;;;8.6;4.7;;;;;;;;;;;;;
2021/06/05 03:54:38;;;;;;;5.5;4.9;;;;;;;;;;;;;
2021/06/05 03:57:04;;;;;;;6.7;4.6;;;;;;;;;;;;;
2021/06/05 03:59:32;;;;;;;4.8;4.3;;;;;;;;;;;;;
2021/06/05 04:02:28;;;;;;;6.9;4.8;;;;;;;15.47;90.9043;942.7355;;;;
2021/06/05 04:04:54;;;;;;;6.8;4.7;;;;;;;15.55;90.21777;942.7947;;;;
2021/06/05 04:07:20;;;;;;;6.9;5.2;;;;;;;15.64;90.22363;942.7589;;;;
2021/06/05 04:09:46;;;;;;;7.8;5;;;;;;;15.65;89.98438;942.8015;;;;
2021/06/05 04:12:15;;;;;;;5.3;4.6;;;;;;;15.77;89.5459;942.7762;;;;
2021/06/05 04:14:45;;;;;;;8;4.7;;;;;;;15.87;89.3125;942.777;;;;
2021/06/05 04:17:10;;;;;;;8.2;4.8;;;;;;;15.76;89.38086;942.7762;;;;
2021/06/05 04:19:39;;;;;;;7.3;5.5;;;;;;;15.55;90.51855;942.7609;;;;
2021/06/05 04:22:05;;;;;;;6.1;5;;;;;;;15.55;90.62207;942.7256;;;;
2021/06/05 04:24:29;;;;;;;6.5;5;;;;;;;15.49;91.01367;942.6697;;;;
2021/06/05 04:26:58;;;;;;;6;5.4;;;;;;;15.31;91.99023;942.6802;;;;
2021/06/05 04:30:09;;;;;;;5.6;5.1;;;;;;;15.25;92.48633;942.6642;;;;
2021/06/05 04:32:32;;;;;;;6.3;4.6;;;;;;;15.45;91.74316;942.6617;;;;
2021/06/05 04:34:59;;;;;;;5.9;5.1;;;;;;;15.42;90.82715;942.6883;;;;
2021/06/05 04:37:24;;;;;;;8.7;5.3;;;;;;;15.44;91.10645;942.6922;;;;
2021/06/05 04:39:50;;;;;;;6.9;4.9;;;;;;;15.65;90.45801;942.7035;;;;
2021/06/05 04:42:15;;;;;;;6;4.9;;;;;;;15.41;90.38477;942.6968;;;;
2021/06/05 04:44:43;;;;;;;7.3;4.7;;;;;;;15.26;90.93164;942.6401;;;;
2021/06/05 04:47:08;;;;;;;5.2;3.9;;;;;;;15.45;89.75684;942.6376;;;;
2021/06/05 04:49:35;;;;;;;5.8;4.4;;;;;;;15.64;89.04492;942.5775;;;;
2021/06/05 04:52:09;;;;;;;5.5;4.4;;;;;;;15.83;88.77344;942.5884;;;;
2021/06/05 04:55:58;;;;;;;6.6;4.5;;;;;;;16.02;88.47461;942.6526;;;;
2021/06/05 04:58:26;;;;;;;15.4;5.1;;;;;;;16.28;87.46484;942.6431;;;;
2021/06/05 05:01:10;;;;;;;6.7;4.5;;;;;;;16.38;86.6748;942.6489;;;;
2021/06/05 05:04:01;;;;;;;8.5;4.6;;;;;;;17.1;84.30078;942.6839;;;;
2021/06/05 05:06:42;;;;;;;5.2;3.5;;;;;;;18.42;78.56836;942.6747;;;;
2021/06/05 05:09:07;;;;;;;4.8;3.6;;;;;;;19.42;73.57129;942.614;;;;
2021/06/05 05:11:32;;;;;;;4.3;3.5;;;;;;;20.21;69.60645;942.6122;;;;
2021/06/05 05:13:57;;;;;;;3.4;3.1;;;;;;;20.61;66.93555;942.6563;;;;
2021/06/05 05:16:22;;;;;;;4.1;3.2;;;;;;;20.47;67.52051;942.6164;;;;
2021/06/05 05:18:53;;;;;;;3.7;3.3;;;;;;;19.85;69.64355;942.6166;;;;
2021/06/05 05:21:16;;;;;;;5.5;3.1;;;;;;;19.74;70.23145;942.6242;;;;
2021/06/05 05:23:41;;;;;;;4.2;3;;;;;;;19.72;71.65039;942.6221;;;;
2021/06/05 05:26:06;;;;;;;6.5;3.2;;;;;;;20.61;68.39551;942.6473;;;;
2021/06/05 05:28:33;;;;;;;5.7;3.4;;;;;;;20.65;67.95898;942.6694;;;;
2021/06/05 05:30:58;;;;;;;3.6;3.3;;;;;;;21.11;66.7998;942.6592;;;;
2021/06/05 05:33:24;;;;;;;4.4;3.2;;;;;;;20.84;66.09277;942.6291;;;;
2021/06/05 05:35:49;;;;;;;9;3.2;;;;;;;20.84;66.50195;942.5457;;;;
2021/06/05 05:38:17;;;;;;;6.4;4.8;;;;;;;20.66;67.13086;942.623;;;;
2021/06/05 05:40:42;;;;;;;55.8;39.3;;;;;;;20.36;68.1709;942.5178;;;;
2021/06/05 05:43:07;;;;;;;26.6;20.5;;;;;;;20.52;69.57324;942.5822;;;;
2021/06/05 05:45:32;;;;;;;5.9;3.2;;;;;;;20.6;67.77344;942.5692;;;;
2021/06/05 05:47:58;;;;;;;7.7;4.1;;;;;;;20.33;70.12695;942.5428;;;;
2021/06/05 05:50:24;;;;;;;5.7;3.9;;;;;;;20.16;69.43457;942.4927;;;;
2021/06/05 05:52:49;;;;;;;4.1;3.5;;;;;;;19.94;69.86621;942.4978;;;;
2021/06/05 05:55:17;;;;;;;4.2;3.5;;;;;;;19.44;71.36035;942.4659;;;;
2021/06/05 05:57:42;;;;;;;5;3.9;;;;;;;19.21;72.95508;942.437;;;;
2021/06/05 06:00:08;;;;;;;5.3;3.5;;;;;;;19.12;73.94141;942.4005;;;;
2021/06/05 06:02:33;;;;;;;7.4;3.8;;;;;;;18.84;75.30273;942.3258;;;;
2021/06/05 06:04:58;;;;;;;4.9;4;;;;;;;18.83;76.52246;942.3736;;;;
2021/06/05 06:07:23;;;;;;;6.5;4.2;;;;;;;19.03;76.95313;942.3262;;;;
2021/06/05 06:09:49;;;;;;;7.4;4;;;;;;;19.25;75.83789;942.3729;;;;
2021/06/05 06:12:14;;;;;;;4.9;3.5;;;;;;;19.24;74.89453;942.3923;;;;
2021/06/05 06:14:39;;;;;;;6.3;3.5;;;;;;;19.11;75.59277;942.4024;;;;
2021/06/05 06:17:04;;;;;;;7.1;4.1;;;;;;;18.87;76.49219;942.4512;;;;
2021/06/05 06:19:31;;;;;;;4.5;3.6;;;;;;;18.8;77.31934;942.4788;;;;
2021/06/05 06:21:56;;;;;;;4.6;3.8;;;;;;;18.78;76.50293;942.47;;;;
2021/06/05 06:24:22;;;;;;;8.3;3.9;;;;;;;18.72;78.36328;942.48;;;;
2021/06/05 06:26:47;;;;;;;8.9;4.4;;;;;;;18.82;78.37012;942.4719;;;;
2021/06/05 06:29:15;;;;;;;5.7;4.2;;;;;;;18.49;79.48633;942.4988;;;;
2021/06/05 06:31:38;;;;;;;8.3;4;;;;;;;18.61;78.98438;942.46;;;;
2021/06/05 06:34:04;;;;;;;5.4;4.2;;;;;;;18.69;77.60254;942.4626;;;;
2021/06/05 06:36:30;;;;;;;8;3.9;;;;;;;18.98;77.58496;942.4874;;;;
2021/06/05 06:38:56;;;;;;;5.6;3.5;;;;;;;19.2;75.60742;942.4565;;;;
2021/06/05 06:41:21;;;;;;;4.2;3.8;;;;;;;19.24;75.72168;942.4512;;;;
2021/06/05 06:43:49;;;;;;;6.8;3.9;;;;;;;19.51;75.28809;942.4437;;;;
2021/06/05 06:46:14;;;;;;;5.3;3.4;;;;;;;19.41;75.00488;942.378;;;;
2021/06/05 06:48:40;;;;;;;5.6;4;;;;;;;19.16;75.51953;942.366;;;;
2021/06/05 06:51:05;;;;;;;4.6;3.6;;;;;;;18.87;76.91113;942.3948;;;;
2021/06/05 06:53:32;;;;;;;5.2;3.7;;;;;;;18.93;76.27246;942.3453;;;;
2021/06/05 06:55:56;;;;;;;4.2;3.7;;;;;;;18.93;75.08496;942.3397;;;;
2021/06/05 06:58:22;;;;;;;4.8;3.5;;;;;;;19.32;74.95313;942.3045;;;;
2021/06/05 07:00:47;;;;;;;5.8;3.6;;;;;;;19.59;72.63281;942.3116;;;;
2021/06/05 07:03:12;;;;;;;4;3.5;;;;;;;19.84;70.79688;942.2733;;;;
2021/06/05 07:05:37;;;;;;;4.1;3.6;;;;;;;19.78;70.63477;942.3389;;;;
2021/06/05 07:08:02;;;;;;;5.6;3.4;;;;;;;20.24;70.83691;942.2762;;;;
2021/06/05 07:10:27;;;;;;;4.1;3.5;;;;;;;20.3;69.3291;942.2126;;;;
2021/06/05 07:12:54;;;;;;;3.7;3.3;;;;;;;19.99;69.19629;942.0974;;;;
2021/06/05 07:15:19;;;;;;;4.7;3.4;;;;;;;19.86;69.12012;942.2534;;;;
2021/06/05 07:17:47;;;;;;;3.4;3.1;;;;;;;20.12;68.58887;942.238;;;;
2021/06/05 07:20:12;;;;;;;6.3;3.3;;;;;;;20.4;66.76367;942.2557;;;;
2021/06/05 07:22:37;;;;;;;6.4;3.7;;;;;;;20.6;66.04492;942.2414;;;;
2021/06/05 07:25:02;;;;;;;5.7;3.4;;;;;;;20.71;65.59375;942.2441;;;;
2021/06/05 07:27:28;;;;;;;5.5;3.5;;;;;;;20.7;65.68555;942.2751;;;;
2021/06/05 07:29:56;;;;;;;4.5;3.4;;;;;;;20.74;65.97266;942.2595;;;;
2021/06/05 07:32:21;;;;;;;5.4;3.5;;;;;;;20.88;65.95801;942.1894;;;;
2021/06/05 07:34:46;;;;;;;4.9;3.4;;;;;;;20.76;66.04688;942.1852;;;;
2021/06/05 07:37:12;;;;;;;7.4;3.6;;;;;;;20.75;65.22754;942.1564;;;;
2021/06/05 07:39:37;;;;;;;7.3;3.7;;;;;;;20.73;65.77441;942.1375;;;;
2021/06/05 07:42:04;;;;;;;4.6;3.4;;;;;;;20.81;65.45801;942.0959;;;;
2021/06/05 07:44:29;;;;;;;4.5;3.3;;;;;;;20.94;64.21387;942.1021;;;;
2021/06/05 07:46:56;;;;;;;3.6;3.1;;;;;;;21.23;64.44434;942.0589;;;;
2021/06/05 07:49:20;;;;;;;4.7;3.4;;;;;;;21.48;62.0791;942.0709;;;;
2021/06/05 07:51:45;;;;;;;5.6;3.1;;;;;;;21.26;63.21973;942.0446;;;;
2021/06/05 07:54:10;;;;;;;5.4;3.1;;;;;;;21.42;62.59766;942.0722;;;;
2021/06/05 07:56:35;;;;;;;4.8;3.4;;;;;;;21.33;62.04785;942.0728;;;;
2021/06/05 07:59:00;;;;;;;4.9;3.5;;;;;;;21.41;64.04883;942.0681;;;;
2021/06/05 08:01:27;;;;;;;4.9;3.1;;;;;;;21.31;62.86328;942.0613;;;;
2021/06/05 08:03:51;;;;;;;5.3;3.9;;;;;;;21.55;60.77832;942.0178;;;;
2021/06/05 08:06:18;;;;;;;8.4;5.3;;;;;;;21.41;62.45605;942.0619;;;;
2021/06/05 08:08:43;;;;;;;5;3.6;;;;;;;21.66;64.15527;942.0605;;;;
2021/06/05 08:11:12;;;;;;;4.5;3;;;;;;;22.06;64.63379;941.9797;;;;
2021/06/05 08:13:36;;;;;;;4.3;3;;;;;;;22.17;63.2207;941.9943;;;;
2021/06/05 08:16:05;;;;;;;6.8;3.2;;;;;;;22.48;61.92676;941.9614;;;;
2021/06/05 08:18:34;;;;;;;5.4;3.8;;;;;;;22.63;60.59863;941.9285;;;;
2021/06/05 08:20:59;;;;;;;4.4;3.4;;;;;;;22.8;61.34961;941.885;;;;
2021/06/05 08:23:26;;;;;;;6;3.7;;;;;;;23.04;59.93652;941.9104;;;;
2021/06/05 08:28:50;;;;;;;5.5;3.1;;;;;;;23.16;57.19141;941.8823;;;;
2021/06/05 08:31:15;;;;;;;3.6;3.3;;;;;;;23.32;57.71777;941.9356;;;;
2021/06/05 08:33:40;;;;;;;5.3;3;;;;;;;23.72;55.6748;941.8714;;;;
2021/06/05 08:36:05;;;;;;;4.1;3;;;;;;;24;55.86426;941.9623;;;;
2021/06/05 08:38:31;;;;;;;5.7;3.5;;;;;;;24.08;56.22656;941.95;;;;
2021/06/05 08:40:57;;;;;;;5.4;3.2;;;;;;;24.44;54.91699;941.9733;;;;
2021/06/05 08:43:22;;;;;;;3.6;3;;;;;;;24.61;53.66406;942.0162;;;;
2021/06/05 08:45:47;;;;;;;4.2;2.9;;;;;;;24.61;55.52734;941.978;;;;
2021/06/05 08:48:13;;;;;;;4.7;3.3;;;;;;;24.56;54.14258;941.8805;;;;
2021/06/05 08:50:38;;;;;;;5.1;3.5;;;;;;;24.48;54.60352;941.9048;;;;
2021/06/05 08:53:03;;;;;;;4.6;3.7;;;;;;;24.29;57.19531;941.8738;;;;
2021/06/05 08:55:31;;;;;;;4.7;3.6;;;;;;;24.03;56.4209;941.8933;;;;
2021/06/05 08:57:56;;;;;;;4.3;3.9;;;;;;;23.86;55.75195;941.9008;;;;
2021/06/05 09:00:21;;;;;;;6.2;4;;;;;;;23.82;58.25293;941.9728;;;;
2021/06/05 09:02:46;;;;;;;4.3;3.9;;;;;;;23.83;57.77148;941.9922;;;;
2021/06/05 09:05:11;;;;;;;4.6;3.9;;;;;;;23.87;57.68164;941.9233;;;;
2021/06/05 09:07:37;;;;;;;6.2;3.9;;;;;;;23.81;59.29883;941.912;;;;
2021/06/05 09:10:03;;;;;;;3.9;3.5;;;;;;;23.83;60.06641;941.9611;;;;
2021/06/05 09:12:28;;;;;;;4.9;3.5;;;;;;;24.05;58.54297;941.973;;;;
2021/06/05 09:14:56;;;;;;;4.6;4;;;;;;;24.21;56.27832;941.932;;;;
2021/06/05 09:17:21;;;;;;;4.8;4.3;;;;;;;24.21;55.56055;941.9002;;;;
2021/06/05 09:19:46;;;;;;;5.1;4.4;;;;;;;24.02;56.76074;941.9404;;;;
2021/06/05 09:22:12;;;;;;;6.1;3.5;;;;;;;24.26;55.80176;941.9274;;;;
2021/06/05 09:24:37;;;;;;;5.1;3.9;;;;;;;24.03;57.02148;941.907;;;;
2021/06/05 09:27:03;;;;;;;4.5;3;;;;;;;23.98;56.15527;941.8639;;;;
2021/06/05 09:29:28;;;;;;;3.6;3.3;;;;;;;23.77;57.10645;941.8922;;;;
2021/06/05 09:31:54;;;;;;;4.8;3.3;;;;;;;23.69;57.24805;941.9081;;;;
2021/06/05 09:34:19;;;;;;;4.9;3.6;;;;;;;23.91;56.84082;941.855;;;;
2021/06/05 09:36:46;;;;;;;4.6;3.4;;;;;;;24;56.45313;941.837;;;;
2021/06/05 09:39:12;;;;;;;4.4;4;;;;;;;24.06;57.28418;941.8611;;;;
2021/06/05 09:41:36;;;;;;;3.9;3.4;;;;;;;24.08;56.33203;941.8533;;;;
2021/06/05 09:44:01;;;;;;;5.3;3.7;;;;;;;23.77;57.63574;941.8694;;;;
2021/06/05 09:46:27;;;;;;;5.8;4.2;;;;;;;23.32;59.77441;941.9006;;;;
2021/06/05 09:48:52;;;;;;;4;3.4;;;;;;;23.2;60.34668;941.8613;;;;
2021/06/05 09:51:17;;;;;;;4.2;3.6;;;;;;;22.65;61.83301;941.8655;;;;
2021/06/05 09:53:42;;;;;;;5.5;3.2;;;;;;;22.35;62.12012;941.9235;;;;
2021/06/05 09:56:07;;;;;;;4.9;3.5;;;;;;;22.36;62.47363;941.8842;;;;
2021/06/05 09:58:32;;;;;;;3.7;3.4;;;;;;;21.99;66.40625;941.8911;;;;
2021/06/05 10:00:57;;;;;;;6.8;4.3;;;;;;;22.12;65.95605;941.8529;;;;
2021/06/05 10:03:24;;;;;;;4.3;3.9;;;;;;;22.19;65.84961;941.7609;;;;
2021/06/05 10:05:49;;;;;;;6.2;4.7;;;;;;;22.08;67.81445;941.7908;;;;
2021/06/05 10:08:14;;;;;;;6;4.5;;;;;;;22.13;66.84863;941.7935;;;;
2021/06/05 10:10:41;;;;;;;6.8;4.2;;;;;;;22.19;66.54102;941.8047;;;;
2021/06/05 10:13:06;;;;;;;4.6;4.1;;;;;;;22.43;65.2041;941.7219;;;;
2021/06/05 10:15:31;;;;;;;5;4.3;;;;;;;21.74;69.15625;941.7276;;;;
2021/06/05 10:17:57;;;;;;;7.4;4.7;;;;;;;22.01;69.08105;941.7405;;;;
2021/06/05 10:20:22;;;;;;;7.9;4.8;;;;;;;22.06;67.89355;941.6957;;;;
2021/06/05 10:22:47;;;;;;;4.7;4.3;;;;;;;22.24;66.50098;941.7224;;;;
2021/06/05 10:25:12;;;;;;;6.4;4.5;;;;;;;22.68;64.75977;941.7606;;;;
2021/06/05 10:27:37;;;;;;;5.3;4.4;;;;;;;22.89;63.89746;941.7762;;;;
2021/06/05 10:30:02;;;;;;;5.2;3.9;;;;;;;23.18;62.02344;941.7897;;;;
2021/06/05 10:32:28;;;;;;;7.7;4.9;;;;;;;23.35;61.49512;941.7859;;;;
2021/06/05 10:34:53;;;;;;;4.8;3.8;;;;;;;23.52;61.40137;941.7356;;;;
2021/06/05 10:37:18;;;;;;;4.4;4;;;;;;;23.49;61.9502;941.7333;;;;
2021/06/05 10:39:44;;;;;;;3.5;3.2;;;;;;;24.11;57.20703;941.7657;;;;
2021/06/05 10:42:09;;;;;;;8.2;3.7;;;;;;;24.49;57.64551;941.7758;;;;
2021/06/05 10:44:35;;;;;;;5;3.4;;;;;;;24.47;57.84277;941.7887;;;;
2021/06/05 10:47:00;;;;;;;4.9;3.8;;;;;;;24.47;57.0293;941.7186;;;;
2021/06/05 10:49:25;;;;;;;4;2.9;;;;;;;24.37;57.41797;941.6906;;;;
2021/06/05 10:51:50;;;;;;;5.2;3.2;;;;;;;24.75;56.15723;941.6884;;;;
2021/06/05 10:54:15;;;;;;;4.3;3.1;;;;;;;24.96;54.92188;941.7242;;;;
2021/06/05 10:56:40;;;;;;;3.2;2.9;;;;;;;24.58;53.07227;941.7592;;;;
2021/06/05 10:59:05;;;;;;;3.4;2.9;;;;;;;24.2;54.38086;941.6769;;;;
2021/06/05 11:01:30;;;;;;;3.8;2.9;;;;;;;24.05;55.9043;941.5793;;;;
2021/06/05 11:03:57;;;;;;;4.1;2.8;;;;;;;24.32;56.29102;941.6697;;;;
2021/06/05 11:06:22;;;;;;;4.1;2.9;;;;;;;24.76;55.21582;941.6163;;;;
2021/06/05 11:08:48;;;;;;;4.8;3.1;;;;;;;25.06;53.86035;941.6075;;;;
2021/06/05 11:11:16;;;;;;;3.2;2.4;;;;;;;25.66;51.88867;941.5648;;;;
2021/06/05 11:13:37;;;;;;;4.9;2.7;;;;;;;25.74;51.94434;941.5165;;;;
2021/06/05 11:16:06;;;;;;;4;3.3;;;;;;;25.61;53.72559;941.379;;;;
2021/06/05 11:18:31;;;;;;;4.6;3.3;;;;;;;24.85;54.60059;941.459;;;;
2021/06/05 11:20:56;;;;;;;4.1;3;;;;;;;24.59;55.36035;941.4609;;;;
2021/06/05 11:23:22;;;;;;;4.7;3.4;;;;;;;24.79;54.80664;941.4458;;;;
2021/06/05 11:25:48;;;;;;;3.1;2.8;;;;;;;24.78;53.54395;941.385;;;;
2021/06/05 11:28:13;;;;;;;5.2;2.8;;;;;;;23.81;56.79199;941.3387;;;;
2021/06/05 11:30:38;;;;;;;3.1;2.3;;;;;;;23.6;58.70703;941.3582;;;;
2021/06/05 11:33:05;;;;;;;3.2;2.9;;;;;;;23.54;56.76953;941.3675;;;;
2021/06/05 11:35:29;;;;;;;4.7;2.9;;;;;;;23.06;60.9502;941.3461;;;;
2021/06/05 11:37:54;;;;;;;4.6;3;;;;;;;23.44;56.59277;941.3727;;;;
2021/06/05 11:40:19;;;;;;;2.6;2.4;;;;;;;23.97;57.2959;941.2605;;;;
2021/06/05 11:42:44;;;;;;;3;2.7;;;;;;;24.24;55.81055;941.3915;;;;
2021/06/05 11:47:24;;;;;;;2.7;2.5;;;;;;;23.53;59.19141;941.4108;;;;
2021/06/05 11:49:50;;;;;;;3.6;2.4;;;;;;;23.38;58.3252;941.4261;;;;
2021/06/05 11:52:15;;;;;;;3.3;2.3;;;;;;;22.99;59.51953;941.3269;;;;
2021/06/05 11:54:40;;;;;;;5.6;2.4;;;;;;;22.92;59.53223;941.4309;;;;
2021/06/05 11:57:05;;;;;;;3.9;2.6;;;;;;;23.42;58.65918;941.4094;;;;
2021/06/05 11:59:30;;;;;;;3.6;2.5;;;;;;;23.81;57.12207;941.3688;;;;
2021/06/05 12:01:56;;;;;;;2.9;2.4;;;;;;;24;56.20508;941.3367;;;;
2021/06/05 12:04:21;;;;;;;3.3;2.4;;;;;;;24.22;55.4082;941.3066;;;;
2021/06/05 12:06:46;;;;;;;3.1;2.3;;;;;;;24.11;58.27832;941.3312;;;;
2021/06/05 12:09:12;;;;;;;2.3;2.1;;;;;;;24.19;56.0752;941.2924;;;;
2021/06/05 12:11:36;;;;;;;2.7;2;;;;;;;24.1;56.28711;941.3317;;;;
2021/06/05 12:14:04;;;;;;;4.6;1.9;;;;;;;23.97;55.23535;941.2979;;;;
2021/06/05 12:16:29;;;;;;;3.3;1.8;;;;;;;23.83;53.86426;941.3527;;;;
2021/06/05 12:18:54;;;;;;;1.5;1.4;;;;;;;23.77;52.8916;941.4255;;;;
2021/06/05 12:21:21;;;;;;;2.4;1.5;;;;;;;23.04;55.49609;941.4013;;;;
2021/06/05 12:23:46;;;;;;;3.1;1.5;;;;;;;23.2;56.29102;941.3583;;;;
2021/06/05 12:26:11;;;;;;;2.6;1.6;;;;;;;23.33;57.73047;941.3248;;;;
2021/06/05 12:28:37;;;;;;;3.5;1.5;;;;;;;23.86;53.6084;941.2932;;;;
2021/06/05 12:31:02;;;;;;;3;1.6;;;;;;;23.33;55.28418;941.3965;;;;
2021/06/05 12:33:27;;;;;;;2.5;1.8;;;;;;;23.41;55.71875;941.3675;;;;
2021/06/05 12:35:52;;;;;;;3;1.5;;;;;;;22.87;56.35645;941.3155;;;;
2021/06/05 12:38:17;;;;;;;3.1;1.5;;;;;;;22.75;55.68359;941.3189;;;;
2021/06/05 12:40:42;;;;;;;2.2;1.4;;;;;;;22.38;57.37305;941.3239;;;;
2021/06/05 12:43:08;;;;;;;2.3;1.4;;;;;;;22.15;57.76465;941.2916;;;;
2021/06/05 12:45:33;;;;;;;3.8;1.5;;;;;;;21.73;58.60059;941.3031;;;;
2021/06/05 12:47:58;;;;;;;3.3;1.5;;;;;;;21.11;61.05664;941.4388;;;;
2021/06/05 12:50:23;;;;;;;2.1;1.7;;;;;;;21.22;60.67383;941.3502;;;;
2021/06/05 12:52:51;;;;;;;2.1;1.8;;;;;;;21.33;60.53711;941.3389;;;;
2021/06/05 12:55:16;;;;;;;1.7;1.6;;;;;;;21.18;61.52344;941.3405;;;;
2021/06/05 12:57:41;;;;;;;3.4;1.7;;;;;;;21.14;62.49902;941.3677;;;;
2021/06/05 13:00:06;;;;;;;2.6;1.7;;;;;;;21.27;61.25488;941.2684;;;;
2021/06/05 13:02:31;;;;;;;4.2;2;;;;;;;20.83;63.67188;941.2878;;;;
2021/06/05 13:04:57;;;;;;;3.3;1.7;;;;;;;20.8;63.85449;941.2333;;;;
2021/06/05 13:07:23;;;;;;;3.5;1.9;;;;;;;20.52;63.88477;941.2067;;;;
2021/06/05 13:09:48;;;;;;;3.4;1.8;;;;;;;20.73;64.10156;941.235;;;;
2021/06/05 13:12:13;;;;;;;2.3;1.6;;;;;;;20.7;63.81641;941.2133;;;;
2021/06/05 13:14:38;;;;;;;3.1;1.8;;;;;;;20.72;63.57422;941.2047;;;;
2021/06/05 13:17:03;;;;;;;3.2;1.7;;;;;;;20.84;63.1709;941.2003;;;;
2021/06/05 13:19:31;;;;;;;3.1;1.7;;;;;;;20.92;63.11328;941.2006;;;;
2021/06/05 13:21:56;;;;;;;3.7;1.7;;;;;;;20.95;62.05273;941.228;;;;
2021/06/05 13:24:22;;;;;;;2.7;1.6;;;;;;;20.59;63.39258;941.2584;;;;
2021/06/05 13:26:50;;;;;;;2.9;1.8;;;;;;;20.72;63.17676;941.2068;;;;
2021/06/05 13:29:15;;;;;;;3.5;1.9;;;;;;;20.81;62.31348;941.2833;;;;
2021/06/05 13:31:40;;;;;;;1.7;1.6;;;;;;;20.79;62.98828;941.3064;;;;
2021/06/05 13:34:05;;;;;;;2.6;1.8;;;;;;;20.83;62.62012;941.3243;;;;
2021/06/05 13:36:31;;;;;;;3.6;1.8;;;;;;;20.74;63.17969;941.3571;;;;
2021/06/05 13:38:57;;;;;;;2.1;1.6;;;;;;;20.86;63.04492;941.3697;;;;
2021/06/05 13:41:22;;;;;;;2.1;1.7;;;;;;;20.83;63.29785;941.3194;;;;
2021/06/05 13:43:48;;;;;;;2.7;1.9;;;;;;;20.68;64.10645;941.3714;;;;
2021/06/05 13:46:13;;;;;;;2.8;1.8;;;;;;;20.73;63.62109;941.3517;;;;
2021/06/05 13:48:39;;;;;;;3.1;1.8;;;;;;;20.73;63.99609;941.4155;;;;
2021/06/05 13:51:04;;;;;;;3.3;1.7;;;;;;;20.44;64.8418;941.3777;;;;
2021/06/05 13:53:33;;;;;;;3.5;2.1;;;;;;;20.61;64.24707;941.4506;;;;
2021/06/05 13:55:58;;;;;;;5.6;2.2;;;;;;;20.6;64.91309;941.5187;;;;
2021/06/05 13:58:25;;;;;;;4.1;1.9;;;;;;;20.66;64.94531;941.4885;;;;
2021/06/05 14:00:50;;;;;;;2.3;1.8;;;;;;;20.72;64.41602;941.4077;;;;
2021/06/05 14:03:16;;;;;;;3.3;2.2;;;;;;;20.71;65.39453;941.4169;;;;
2021/06/05 14:05:41;;;;;;;2.5;1.8;;;;;;;20.72;64.8252;941.427;;;;
2021/06/05 14:08:08;;;;;;;3.7;2.2;;;;;;;20.55;66.3418;941.3694;;;;
2021/06/05 14:10:32;;;;;;;3.5;2.1;;;;;;;20.58;65.64453;941.4125;;;;
2021/06/05 14:12:59;;;;;;;3.7;1.9;;;;;;;20.33;65.48047;941.4153;;;;
2021/06/05 14:15:24;;;;;;;3.5;2.1;;;;;;;20.33;65.80859;941.454;;;;
2021/06/05 14:17:50;;;;;;;3.2;2.2;;;;;;;20.46;65.59277;941.4534;;;;
2021/06/05 14:20:15;;;;;;;3.7;2.2;;;;;;;20.44;65.91699;941.4231;;;;
2021/06/05 14:22:40;;;;;;;4.2;2.2;;;;;;;20.41;65.62109;941.4146;;;;
2021/06/05 14:25:05;;;;;;;4.1;2;;;;;;;20.33;65.48047;941.3886;;;;
2021/06/05 14:27:31;;;;;;;5.2;2.3;;;;;;;20.21;65.52148;941.4567;;;;
2021/06/05 14:29:56;;;;;;;2.6;2;;;;;;;20.3;65.5918;941.4751;;;;
2021/06/05 14:32:24;;;;;;;4.2;2.4;;;;;;;20.23;65.53418;941.5786;;;;
2021/06/05 14:34:48;;;;;;;2.5;1.9;;;;;;;20.16;65.39648;941.5887;;;;
2021/06/05 14:37:14;;;;;;;3.1;2.1;;;;;;;20.17;66.02832;941.649;;;;
2021/06/05 14:39:39;;;;;;;5.5;2.3;;;;;;;20.01;66.8916;941.632;;;;
2021/06/05 14:42:09;;;;;;;4.1;2.6;;;;;;;19.85;67.89355;941.6072;;;;
2021/06/05 14:44:35;;;;;;;4.1;2.7;;;;;;;19.96;68.89063;941.6033;;;;
2021/06/05 14:47:00;;;;;;;5.8;2.9;;;;;;;19.68;71.50488;941.5353;;;;
2021/06/05 14:49:25;;;;;;;6.2;3.2;;;;;;;19.43;74.79688;941.5687;;;;
2021/06/05 14:51:51;;;;;;;7.5;3.3;;;;;;;19.13;80.00977;941.594;;;;
2021/06/05 14:54:16;;;;;;;6.6;3.2;;;;;;;19.23;80.25098;941.6844;;;;
2021/06/05 14:56:42;;;;;;;8.4;3.6;;;;;;;19.26;80.34863;941.7969;;;;
2021/06/05 14:59:07;;;;;;;5.7;3.5;;;;;;;19.03;80.71289;941.8289;;;;
2021/06/05 15:01:33;;;;;;;8.7;3.6;;;;;;;18.81;81.80273;941.9515;;;;
2021/06/05 15:03:58;;;;;;;7.7;2.9;;;;;;;18.51;82.01465;942.0121;;;;
2021/06/05 15:06:23;;;;;;;7.8;3.2;;;;;;;18.25;82.08203;942.1753;;;;
2021/06/05 15:08:51;;;;;;;8.8;3.2;;;;;;;18.23;84.5752;942.2505;;;;
2021/06/05 15:11:15;;;;;;;8;3.2;;;;;;;18.02;85.47656;942.3674;;;;
2021/06/05 15:13:41;;;;;;;5.8;3.7;;;;;;;17.64;87.57324;942.4475;;;;
2021/06/05 15:16:09;;;;;;;9.2;4.3;;;;;;;17.41;90.26563;942.5661;;;;
2021/06/05 15:18:34;;;;;;;10.8;4.1;;;;;;;17.42;89.57129;942.6638;;;;
2021/06/05 15:20:59;;;;;;;8.8;4.1;;;;;;;17.24;90.68262;942.9645;;;;
2021/06/05 15:23:24;;;;;;;7;4;;;;;;;17.12;90.35645;942.7819;;;;
2021/06/05 15:46:23;;;;;;;1.2;1.1;;;;;;;15.95;85.78125;943.0594;;;;
2021/06/05 15:48:48;;;;;;;4.1;1.4;;;;;;;16.02;87.9541;943.0864;;;;
2021/06/05 15:51:13;;;;;;;3.8;1.3;;;;;;;16.11;88.62207;943.0261;;;;
2021/06/05 15:53:40;;;;;;;5.3;0.9;;;;;;;16.1;88.83789;943.1169;;;;
2021/06/05 15:56:06;;;;;;;2;0.9;;;;;;;16.05;89.7793;943.171;;;;
2021/06/05 15:58:32;;;;;;;1.8;0.9;;;;;;;15.94;88.8877;943.1614;;;;
2021/06/05 16:00:57;;;;;;;2.1;0.8;;;;;;;15.86;88.89453;943.1063;;;;